Time;durP1;ratioP1;P1;durP2;ratioP2;P2;SDS_P1;SDS_P2;PMS_P1;PMS_P2;Temp;Humidity;BMP_temperature;BMP_pressure;BME280_temperature;BME280_humidity;BME280_pressure;Samples;Min_cycle;Max_cycle;Signal;HPM_P1;HPM_P2
2023/08/30 00:00:11;;;;;;;16.83;14.38;;;;;;;;;;5014511;28;21212;-73
2023/08/30 00:02:37;;;;;;;17.05;15.30;;;;;;;;;;5015477;28;20040;-73
2023/08/30 00:05:04;;;;;;;16.65;15.07;;;;;;;;;;4997727;28;20123;-73
2023/08/30 00:07:30;;;;;;;18.15;16.23;;;;;;;;;;5015912;28;20041;-73
2023/08/30 00:09:57;;;;;;;17.05;15.27;;;;;;;;;;5016459;28;20051;-73
2023/08/30 00:12:23;;;;;;;17.88;15.55;;;;;;;;;;5035679;28;20947;-73
2023/08/30 00:14:49;;;;;;;17.83;15.68;;;;;;;;;;5015239;28;20370;-73
2023/08/30 00:17:15;;;;;;;18.77;16.83;;;;;;;;;;5014668;28;20932;-73
2023/08/30 00:19:41;;;;;;;19.08;17.10;;;;;;;;;;4996023;28;20055;-73
2023/08/30 00:22:07;;;;;;;20.73;17.35;;;;;;;;;;5033444;28;20501;-73
2023/08/30 00:24:33;;;;;;;18.77;16.98;;;;;;;;;;5034237;28;20416;-73
2023/08/30 00:27:00;;;;;;;17.70;15.90;;;;;;;;;;5003548;28;20447;-73
2023/08/30 00:29:27;;;;;;;18.02;15.73;;;;;;;;;;5016850;28;20049;-73
2023/08/30 00:31:53;;;;;;;19.15;17.15;;;;;;;;;;5017924;28;20043;-73
2023/08/30 00:34:19;;;;;;;20.00;18.05;;;;;;;;;;5017492;28;20123;-73
2023/08/30 00:36:45;;;;;;;20.38;18.05;;;;;;;;;;5032603;28;20041;-72
2023/08/30 00:39:11;;;;;;;20.48;18.35;;;;;;;;;;5022553;28;20973;-72
2023/08/30 00:41:37;;;;;;;21.60;19.40;;;;;;;;;;5017643;28;20048;-72
2023/08/30 00:44:03;;;;;;;22.30;19.33;;;;;;;;;;5021476;28;20489;-72
2023/08/30 00:46:29;;;;;;;20.33;18.30;;;;;;;;;;5012150;28;20106;-72
2023/08/30 00:48:55;;;;;;;21.42;19.20;;;;;;;;;;5016174;28;20060;-72
2023/08/30 00:51:22;;;;;;;21.92;19.63;;;;;;;;;;5011893;28;20059;-71
2023/08/30 00:53:48;;;;;;;22.00;19.75;;;;;;;;;;5009988;28;20044;-72
2023/08/30 00:56:15;;;;;;;23.92;20.70;;;;;;;;;;5008764;28;20646;-72
2023/08/30 00:58:41;;;;;;;23.45;20.02;;;;;;;;;;5013366;28;20116;-72
2023/08/30 01:01:08;;;;;;;21.75;19.30;;;;;;;;;;5001266;28;20504;-72
2023/08/30 01:03:34;;;;;;;21.80;17.90;;;;;;;;;;5029285;28;20047;-72
2023/08/30 01:06:01;;;;;;;21.30;19.02;;;;;;;;;;5010551;28;20091;-73
2023/08/30 01:08:27;;;;;;;21.90;19.63;;;;;;;;;;5012030;28;20044;-72
2023/08/30 01:10:58;;;;;;;19.98;17.98;;;;;;;;;;5012140;28;20131;-72
2023/08/30 01:13:27;;;;;;;21.45;19.33;;;;;;;;;;5009959;28;20522;-72
2023/08/30 01:15:54;;;;;;;20.95;18.42;;;;;;;;;;5019555;28;21960;-72
2023/08/30 01:18:22;;;;;;;20.15;18.13;;;;;;;;;;5016080;28;20128;-73
2023/08/30 01:20:49;;;;;;;22.70;19.70;;;;;;;;;;5014562;28;20087;-72
2023/08/30 01:23:18;;;;;;;21.70;19.00;;;;;;;;;;5010305;28;20060;-73
2023/08/30 01:25:48;;;;;;;22.13;19.88;;;;;;;;;;5010796;28;20068;-72
2023/08/30 01:28:16;;;;;;;22.65;20.35;;;;;;;;;;5015266;28;20061;-72
2023/08/30 01:30:43;;;;;;;24.17;21.27;;;;;;;;;;5013177;28;20503;-72
2023/08/30 01:33:09;;;;;;;22.85;20.48;;;;;;;;;;5014252;28;20489;-72
2023/08/30 01:35:37;;;;;;;24.90;21.35;;;;;;;;;;4999250;28;22107;-72
2023/08/30 01:38:06;;;;;;;26.30;21.95;;;;;;;;;;4998929;28;20049;-72
2023/08/30 01:40:37;;;;;;;26.23;23.52;;;;;;;;;;5017191;28;20045;-72
2023/08/30 01:43:05;;;;;;;30.02;25.88;;;;;;;;;;5014763;28;20128;-73
2023/08/30 01:45:32;;;;;;;27.58;24.67;;;;;;;;;;5013740;28;20144;-73
2023/08/30 01:47:59;;;;;;;26.25;22.73;;;;;;;;;;5011340;28;20178;-72
2023/08/30 01:50:25;;;;;;;30.65;23.60;;;;;;;;;;5013909;28;20055;-72
2023/08/30 01:52:52;;;;;;;25.65;22.92;;;;;;;;;;5016076;28;20060;-72
2023/08/30 01:55:21;;;;;;;24.55;22.02;;;;;;;;;;5015253;28;20158;-72
2023/08/30 01:57:47;;;;;;;25.77;21.88;;;;;;;;;;5010712;28;20052;-71
2023/08/30 02:00:13;;;;;;;26.73;22.42;;;;;;;;;;4995891;28;20052;-72
2023/08/30 02:02:39;;;;;;;27.02;23.88;;;;;;;;;;5014413;28;20174;-72
2023/08/30 02:05:05;;;;;;;26.25;23.17;;;;;;;;;;5013953;28;20508;-72
2023/08/30 02:07:44;;;;;;;31.13;23.25;;;;;;;;;;5011206;28;20045;-72
2023/08/30 02:10:12;;;;;;;25.55;21.33;;;;;;;;;;5008949;28;20080;-72
2023/08/30 02:12:42;;;;;;;24.75;21.30;;;;;;;;;;5015740;28;20068;-71
2023/08/30 02:15:09;;;;;;;25.33;20.77;;;;;;;;;;5013705;28;20052;-72
2023/08/30 02:17:36;;;;;;;22.63;20.30;;;;;;;;;;5014650;28;20041;-72
2023/08/30 02:20:02;;;;;;;23.92;21.38;;;;;;;;;;5018369;28;20165;-71
2023/08/30 02:22:28;;;;;;;22.48;19.00;;;;;;;;;;5015656;28;20041;-71
2023/08/30 02:24:54;;;;;;;21.83;19.55;;;;;;;;;;4994956;28;20053;-72
2023/08/30 02:27:20;;;;;;;21.33;18.65;;;;;;;;;;5011237;28;21974;-72
2023/08/30 02:29:47;;;;;;;21.77;18.45;;;;;;;;;;5010510;28;20048;-72
2023/08/30 02:32:13;;;;;;;23.42;18.35;;;;;;;;;;5009929;28;20610;-72
2023/08/30 02:34:39;;;;;;;21.50;18.95;;;;;;;;;;5011541;28;20158;-72
2023/08/30 02:37:05;;;;;;;22.88;19.52;;;;;;;;;;4993751;28;21384;-71
2023/08/30 02:39:31;;;;;;;22.75;19.95;;;;;;;;;;5011954;28;20083;-72
2023/08/30 02:41:57;;;;;;;23.23;19.73;;;;;;;;;;5011823;28;20045;-72
2023/08/30 02:44:23;;;;;;;21.75;19.25;;;;;;;;;;5011937;28;20151;-72
2023/08/30 02:46:49;;;;;;;26.58;20.92;;;;;;;;;;5009659;28;20045;-72
2023/08/30 02:49:15;;;;;;;24.05;21.10;;;;;;;;;;5011897;28;20053;-72
2023/08/30 02:51:41;;;;;;;23.45;20.85;;;;;;;;;;5011684;28;20061;-72
2023/08/30 02:54:07;;;;;;;25.60;20.90;;;;;;;;;;5012998;28;20057;-72
2023/08/30 02:56:33;;;;;;;23.77;20.40;;;;;;;;;;5015171;28;20298;-71
2023/08/30 02:59:00;;;;;;;24.15;20.13;;;;;;;;;;5011866;28;20041;-72
2023/08/30 03:01:26;;;;;;;25.13;20.42;;;;;;;;;;5013119;28;20079;-72
2023/08/30 03:03:52;;;;;;;21.67;19.40;;;;;;;;;;5014010;28;20048;-72
2023/08/30 03:06:18;;;;;;;22.92;19.40;;;;;;;;;;5012618;28;20057;-72
2023/08/30 03:08:44;;;;;;;22.77;19.45;;;;;;;;;;5002109;28;20045;-72
2023/08/30 03:11:13;;;;;;;20.73;17.92;;;;;;;;;;4998356;28;20396;-71
2023/08/30 03:13:40;;;;;;;20.50;18.48;;;;;;;;;;5012986;28;20049;-72
2023/08/30 03:16:12;;;;;;;21.75;18.67;;;;;;;;;;5014108;28;20076;-72
2023/08/30 03:18:39;;;;;;;23.90;19.42;;;;;;;;;;5012076;28;20059;-72
2023/08/30 03:21:05;;;;;;;24.80;20.20;;;;;;;;;;5011496;28;20121;-72
2023/08/30 03:23:32;;;;;;;29.48;20.90;;;;;;;;;;5013172;28;20107;-72
2023/08/30 03:25:59;;;;;;;24.10;20.95;;;;;;;;;;5009743;28;20973;-72
2023/08/30 03:28:25;;;;;;;22.45;19.45;;;;;;;;;;5015494;28;20057;-71
2023/08/30 03:30:51;;;;;;;25.05;20.23;;;;;;;;;;5014497;28;20064;-72
2023/08/30 03:33:17;;;;;;;22.80;20.30;;;;;;;;;;5014736;28;20465;-72
2023/08/30 03:35:43;;;;;;;26.17;21.73;;;;;;;;;;5012604;28;20667;-72
2023/08/30 03:38:09;;;;;;;26.52;21.15;;;;;;;;;;5011184;28;20037;-72
2023/08/30 03:40:35;;;;;;;24.20;20.13;;;;;;;;;;5011370;28;20049;-72
2023/08/30 03:43:01;;;;;;;24.05;20.42;;;;;;;;;;5013422;28;20110;-71
2023/08/30 03:45:27;;;;;;;27.23;20.85;;;;;;;;;;5012502;28;20133;-72
2023/08/30 03:47:53;;;;;;;22.70;19.48;;;;;;;;;;5009688;28;20068;-72
2023/08/30 03:50:19;;;;;;;22.10;19.33;;;;;;;;;;5010779;28;20041;-72
2023/08/30 03:52:45;;;;;;;24.13;19.02;;;;;;;;;;5014440;28;20044;-72
2023/08/30 03:55:11;;;;;;;21.27;18.98;;;;;;;;;;5006906;28;20056;-72
2023/08/30 03:57:38;;;;;;;21.50;19.00;;;;;;;;;;5024752;28;20049;-72
2023/08/30 04:00:04;;;;;;;22.40;19.15;;;;;;;;;;4995393;28;20056;-72
2023/08/30 04:02:30;;;;;;;22.27;18.42;;;;;;;;;;5011200;28;20057;-72
2023/08/30 04:04:56;;;;;;;21.75;19.45;;;;;;;;;;5017049;28;20137;-71
2023/08/30 04:07:22;;;;;;;22.33;19.15;;;;;;;;;;5003319;28;20045;-73
2023/08/30 04:09:48;;;;;;;24.55;19.23;;;;;;;;;;5009295;28;20059;-72
2023/08/30 04:12:14;;;;;;;22.10;18.85;;;;;;;;;;5010742;28;20136;-72
2023/08/30 04:14:40;;;;;;;23.13;18.38;;;;;;;;;;5006984;28;20041;-72
2023/08/30 04:17:06;;;;;;;25.98;18.23;;;;;;;;;;5009618;28;20053;-72
2023/08/30 04:19:32;;;;;;;23.50;18.88;;;;;;;;;;5012446;28;20956;-72
2023/08/30 04:21:58;;;;;;;20.92;18.00;;;;;;;;;;5010550;28;20048;-72
2023/08/30 04:24:24;;;;;;;24.73;18.02;;;;;;;;;;5013098;28;20048;-72
2023/08/30 04:26:53;;;;;;;22.92;17.35;;;;;;;;;;5014725;28;20052;-71
2023/08/30 04:29:19;;;;;;;22.00;17.25;;;;;;;;;;5015402;28;20127;-72
2023/08/30 04:31:45;;;;;;;21.48;17.63;;;;;;;;;;5031681;28;20049;-71
2023/08/30 04:34:11;;;;;;;19.55;16.58;;;;;;;;;;5015351;28;20098;-71
2023/08/30 04:36:37;;;;;;;22.77;17.90;;;;;;;;;;5009984;28;20075;-71
2023/08/30 04:39:03;;;;;;;26.90;18.13;;;;;;;;;;5014819;28;20049;-71
2023/08/30 04:41:29;;;;;;;21.02;16.75;;;;;;;;;;4998207;28;20387;-72
2023/08/30 04:43:55;;;;;;;20.83;17.52;;;;;;;;;;5012910;28;20041;-72
2023/08/30 04:46:21;;;;;;;20.42;17.15;;;;;;;;;;5017582;28;20048;-72
2023/08/30 04:48:47;;;;;;;20.77;17.55;;;;;;;;;;5013379;28;20080;-72
2023/08/30 04:51:13;;;;;;;23.63;17.42;;;;;;;;;;4998483;28;20139;-72
2023/08/30 04:53:41;;;;;;;22.65;18.20;;;;;;;;;;5014365;28;20060;-72
2023/08/30 04:56:11;;;;;;;21.25;18.13;;;;;;;;;;5022295;28;20056;-72
2023/08/30 04:58:38;;;;;;;22.23;18.27;;;;;;;;;;5010975;28;20059;-72
2023/08/30 05:01:04;;;;;;;21.38;18.17;;;;;;;;;;5009701;28;20641;-72
2023/08/30 05:03:31;;;;;;;19.33;17.25;;;;;;;;;;5000382;28;20051;-72
2023/08/30 05:05:57;;;;;;;20.70;17.15;;;;;;;;;;5014312;28;20044;-72
2023/08/30 05:08:23;;;;;;;21.67;17.92;;;;;;;;;;5014386;28;20057;-72
2023/08/30 05:10:49;;;;;;;21.73;17.65;;;;;;;;;;5015530;28;20069;-72
2023/08/30 05:13:16;;;;;;;27.02;17.75;;;;;;;;;;5016774;28;20146;-71
2023/08/30 05:15:43;;;;;;;19.65;17.27;;;;;;;;;;5036097;28;20122;-72
2023/08/30 05:18:09;;;;;;;22.73;17.88;;;;;;;;;;5034482;28;20041;-72
2023/08/30 05:20:35;;;;;;;23.67;18.63;;;;;;;;;;5036166;28;20040;-72
2023/08/30 05:23:01;;;;;;;24.77;18.30;;;;;;;;;;5014633;28;20044;-72
2023/08/30 05:25:27;;;;;;;23.98;18.00;;;;;;;;;;5030225;28;20134;-72
2023/08/30 05:27:53;;;;;;;21.38;18.65;;;;;;;;;;5031878;28;20051;-72
2023/08/30 05:30:19;;;;;;;25.60;19.08;;;;;;;;;;5016144;28;20051;-75
2023/08/30 05:32:46;;;;;;;24.02;17.98;;;;;;;;;;5012144;28;20040;-76
2023/08/30 05:35:12;;;;;;;28.13;19.30;;;;;;;;;;5016241;28;20099;-73
2023/08/30 05:37:38;;;;;;;22.52;17.80;;;;;;;;;;5017022;28;20148;-73
2023/08/30 05:40:04;;;;;;;21.65;18.20;;;;;;;;;;5032177;28;20643;-73
2023/08/30 05:42:30;;;;;;;21.23;18.02;;;;;;;;;;5013706;28;20048;-73
2023/08/30 05:44:56;;;;;;;23.67;18.27;;;;;;;;;;5029120;28;20170;-72
2023/08/30 05:47:23;;;;;;;22.27;17.95;;;;;;;;;;5016723;28;20041;-73
2023/08/30 05:49:49;;;;;;;19.80;16.63;;;;;;;;;;5017298;28;21556;-73
2023/08/30 05:52:18;;;;;;;21.67;17.92;;;;;;;;;;5035575;28;20041;-72
2023/08/30 05:54:44;;;;;;;21.65;17.17;;;;;;;;;;5034630;28;20118;-73
2023/08/30 05:57:11;;;;;;;20.70;17.40;;;;;;;;;;5019125;28;20040;-72
2023/08/30 05:59:37;;;;;;;22.90;17.75;;;;;;;;;;5038318;28;20071;-72
2023/08/30 06:02:04;;;;;;;21.30;17.23;;;;;;;;;;5039312;28;22096;-73
2023/08/30 06:04:30;;;;;;;21.92;18.10;;;;;;;;;;5010433;28;20146;-72
2023/08/30 06:06:56;;;;;;;25.05;18.65;;;;;;;;;;5016857;28;20059;-72
2023/08/30 06:09:22;;;;;;;24.25;17.23;;;;;;;;;;5006662;28;20048;-73
2023/08/30 06:11:48;;;;;;;19.67;16.45;;;;;;;;;;5016253;28;20048;-73
2023/08/30 06:14:14;;;;;;;21.20;16.50;;;;;;;;;;5001109;28;20059;-73
2023/08/30 06:16:44;;;;;;;20.65;17.75;;;;;;;;;;5016740;28;20492;-73
2023/08/30 06:19:10;;;;;;;18.60;16.13;;;;;;;;;;5018070;28;20095;-73
2023/08/30 06:21:36;;;;;;;19.92;15.85;;;;;;;;;;5016157;28;20168;-73
2023/08/30 06:24:03;;;;;;;20.15;15.55;;;;;;;;;;5018568;28;20771;-72
2023/08/30 06:26:32;;;;;;;18.67;15.75;;;;;;;;;;5034685;28;20056;-73
2023/08/30 06:28:58;;;;;;;20.70;15.82;;;;;;;;;;5020776;28;20052;-73
2023/08/30 06:31:26;;;;;;;19.67;15.68;;;;;;;;;;5022615;28;20154;-73
2023/08/30 06:33:52;;;;;;;16.77;14.38;;;;;;;;;;5022412;28;20464;-73
2023/08/30 06:36:18;;;;;;;16.75;14.63;;;;;;;;;;5022011;28;20143;-73
2023/08/30 06:38:44;;;;;;;17.67;14.80;;;;;;;;;;5018069;28;20140;-77
2023/08/30 06:41:10;;;;;;;18.95;14.80;;;;;;;;;;5023780;28;20036;-77
2023/08/30 06:43:38;;;;;;;19.13;14.05;;;;;;;;;;5039663;28;20672;-77
2023/08/30 06:46:04;;;;;;;25.05;16.38;;;;;;;;;;5022509;28;20049;-77
2023/08/30 06:48:30;;;;;;;21.17;14.35;;;;;;;;;;5030971;28;20172;-77
2023/08/30 06:50:59;;;;;;;19.88;14.38;;;;;;;;;;5006529;28;20052;-77
2023/08/30 06:53:28;;;;;;;20.63;14.05;;;;;;;;;;5039226;28;20055;-77
2023/08/30 06:55:58;;;;;;;16.55;12.32;;;;;;;;;;5022013;28;20044;-77
2023/08/30 06:58:25;;;;;;;15.25;12.98;;;;;;;;;;5021229;28;20822;-77
2023/08/30 07:00:51;;;;;;;23.23;12.27;;;;;;;;;;5040019;28;20048;-77
2023/08/30 07:03:17;;;;;;;14.07;11.93;;;;;;;;;;5021884;28;20072;-78
2023/08/30 07:05:43;;;;;;;15.02;11.25;;;;;;;;;;5022823;28;20524;-78
2023/08/30 07:08:09;;;;;;;14.05;12.00;;;;;;;;;;5022928;28;20049;-78
2023/08/30 07:10:36;;;;;;;18.35;12.10;;;;;;;;;;5019959;28;20099;-78
2023/08/30 07:13:02;;;;;;;17.27;12.65;;;;;;;;;;5017795;28;20960;-81
2023/08/30 07:15:28;;;;;;;17.38;12.10;;;;;;;;;;5004094;28;20179;-77
2023/08/30 07:17:54;;;;;;;15.85;12.05;;;;;;;;;;5021591;28;20037;-78
2023/08/30 07:20:20;;;;;;;17.23;12.32;;;;;;;;;;5023377;28;20041;-78
2023/08/30 07:22:46;;;;;;;17.80;11.38;;;;;;;;;;5040533;28;20646;-78
2023/08/30 07:25:13;;;;;;;15.93;12.05;;;;;;;;;;5022320;28;20068;-81
2023/08/30 07:27:39;;;;;;;14.45;11.73;;;;;;;;;;5022485;28;20044;-77
2023/08/30 07:30:06;;;;;;;13.75;11.32;;;;;;;;;;5041298;28;20041;-78
2023/08/30 07:32:32;;;;;;;13.43;10.80;;;;;;;;;;5032869;28;20040;-78
2023/08/30 07:34:58;;;;;;;14.57;10.73;;;;;;;;;;5017727;28;20151;-78
2023/08/30 07:37:24;;;;;;;15.15;11.82;;;;;;;;;;5020881;28;20177;-79
2023/08/30 07:39:52;;;;;;;12.55;10.55;;;;;;;;;;5021746;28;20133;-77
2023/08/30 07:42:18;;;;;;;12.20;9.00;;;;;;;;;;5023005;28;20044;-74
2023/08/30 07:44:44;;;;;;;15.80;10.50;;;;;;;;;;5007396;28;20083;-74
2023/08/30 07:47:10;;;;;;;13.50;9.07;;;;;;;;;;5000362;28;20048;-74
2023/08/30 07:49:36;;;;;;;12.50;9.45;;;;;;;;;;5001567;28;20044;-73
2023/08/30 07:52:02;;;;;;;13.32;8.73;;;;;;;;;;5018174;28;20085;-74
2023/08/30 07:54:29;;;;;;;13.50;8.63;;;;;;;;;;5023675;28;20049;-74
2023/08/30 07:56:55;;;;;;;12.45;9.05;;;;;;;;;;5008599;28;20079;-74
2023/08/30 07:59:21;;;;;;;13.65;9.48;;;;;;;;;;5017101;28;20040;-74
2023/08/30 08:01:47;;;;;;;10.77;8.30;;;;;;;;;;5017784;28;20075;-74
2023/08/30 08:04:13;;;;;;;13.02;8.88;;;;;;;;;;5000695;28;20044;-74
2023/08/30 08:06:39;;;;;;;13.48;8.32;;;;;;;;;;5019194;28;20076;-74
2023/08/30 08:09:07;;;;;;;13.95;8.93;;;;;;;;;;4998341;28;20040;-74
2023/08/30 08:11:33;;;;;;;13.02;7.50;;;;;;;;;;5016964;28;20056;-74
2023/08/30 08:13:59;;;;;;;13.32;8.82;;;;;;;;;;5036385;28;20496;-74
2023/08/30 08:16:25;;;;;;;11.02;8.98;;;;;;;;;;5018237;28;20044;-74
2023/08/30 08:18:52;;;;;;;11.43;8.65;;;;;;;;;;5016274;28;20084;-74
2023/08/30 08:21:18;;;;;;;11.15;8.88;;;;;;;;;;5015952;28;20051;-74
2023/08/30 08:23:44;;;;;;;11.15;8.52;;;;;;;;;;5035110;28;20048;-74
2023/08/30 08:26:10;;;;;;;12.07;9.18;;;;;;;;;;5019419;28;20067;-73
2023/08/30 08:28:36;;;;;;;10.82;7.70;;;;;;;;;;5039423;28;20056;-74
2023/08/30 08:31:02;;;;;;;13.23;9.63;;;;;;;;;;5004626;28;20041;-74
2023/08/30 08:33:29;;;;;;;12.35;9.38;;;;;;;;;;5033500;28;20064;-74
2023/08/30 08:35:55;;;;;;;11.65;9.10;;;;;;;;;;5001652;28;20127;-74
2023/08/30 08:38:21;;;;;;;13.00;10.23;;;;;;;;;;5001514;28;20156;-74
2023/08/30 08:40:50;;;;;;;13.25;10.35;;;;;;;;;;5020970;28;20056;-74
2023/08/30 08:43:18;;;;;;;15.95;10.77;;;;;;;;;;5039068;28;20032;-74
2023/08/30 08:45:46;;;;;;;10.68;8.43;;;;;;;;;;5020897;28;20044;-74
2023/08/30 08:48:13;;;;;;;14.55;10.13;;;;;;;;;;5018777;28;20044;-74
2023/08/30 08:50:39;;;;;;;15.40;10.55;;;;;;;;;;5017393;28;20045;-73
2023/08/30 08:53:07;;;;;;;13.18;10.32;;;;;;;;;;5018033;28;20040;-73
2023/08/30 08:55:34;;;;;;;14.35;11.30;;;;;;;;;;5014573;28;20046;-73
2023/08/30 08:58:01;;;;;;;14.48;10.18;;;;;;;;;;5033245;28;20071;-73
2023/08/30 09:00:27;;;;;;;16.88;10.90;;;;;;;;;;5006947;28;20045;-73
2023/08/30 09:02:54;;;;;;;16.63;11.48;;;;;;;;;;5015753;28;20127;-73
2023/08/30 09:05:20;;;;;;;12.13;9.95;;;;;;;;;;5017885;28;20052;-73
2023/08/30 09:07:48;;;;;;;14.13;10.85;;;;;;;;;;5018348;28;20055;-73
2023/08/30 09:10:14;;;;;;;14.85;10.77;;;;;;;;;;5017411;28;20103;-73
2023/08/30 09:12:40;;;;;;;16.02;11.38;;;;;;;;;;5015465;28;20040;-74
2023/08/30 09:15:06;;;;;;;13.50;10.90;;;;;;;;;;5016106;28;20083;-74
2023/08/30 09:17:36;;;;;;;18.02;11.38;;;;;;;;;;5016132;28;20048;-74
2023/08/30 09:20:09;;;;;;;13.45;11.02;;;;;;;;;;5014588;28;20202;-74
2023/08/30 09:22:41;;;;;;;15.07;12.23;;;;;;;;;;5016230;28;20044;-74
2023/08/30 09:25:11;;;;;;;16.33;11.43;;;;;;;;;;5013516;28;20398;-74
2023/08/30 09:27:38;;;;;;;22.40;12.23;;;;;;;;;;5013395;28;20754;-74
2023/08/30 09:30:08;;;;;;;13.23;11.32;;;;;;;;;;5013708;28;20080;-74
2023/08/30 09:32:39;;;;;;;17.80;11.55;;;;;;;;;;5014887;28;20041;-74
2023/08/30 09:35:05;;;;;;;15.65;11.52;;;;;;;;;;5015111;28;20048;-74
2023/08/30 09:37:31;;;;;;;16.45;11.85;;;;;;;;;;5014288;28;20044;-74
2023/08/30 09:39:57;;;;;;;15.30;11.18;;;;;;;;;;4998860;28;20103;-74
2023/08/30 09:42:23;;;;;;;16.80;10.95;;;;;;;;;;5017594;28;20056;-74
2023/08/30 09:44:50;;;;;;;18.70;11.98;;;;;;;;;;5017011;28;20042;-74
2023/08/30 09:47:16;;;;;;;14.98;11.13;;;;;;;;;;5011627;28;20067;-74
2023/08/30 09:49:46;;;;;;;15.95;11.85;;;;;;;;;;5017803;28;20677;-74
2023/08/30 09:52:15;;;;;;;16.20;10.55;;;;;;;;;;5017052;28;20088;-74
2023/08/30 09:54:45;;;;;;;15.68;10.27;;;;;;;;;;5017802;28;20536;-74
2023/08/30 09:57:11;;;;;;;12.18;9.40;;;;;;;;;;5000359;28;20041;-73
2023/08/30 09:59:39;;;;;;;16.08;9.90;;;;;;;;;;5017621;28;20049;-73
2023/08/30 10:02:06;;;;;;;10.90;8.23;;;;;;;;;;5013791;28;20052;-73
2023/08/30 10:04:33;;;;;;;12.15;8.75;;;;;;;;;;5015668;28;20049;-73
2023/08/30 10:06:59;;;;;;;14.68;8.85;;;;;;;;;;5004183;28;21512;-73
2023/08/30 10:09:25;;;;;;;12.45;8.77;;;;;;;;;;4999661;28;20073;-72
2023/08/30 10:11:52;;;;;;;14.80;9.52;;;;;;;;;;5016484;28;21897;-72
2023/08/30 10:14:18;;;;;;;12.65;8.50;;;;;;;;;;4999564;28;20509;-72
2023/08/30 10:16:45;;;;;;;13.73;9.20;;;;;;;;;;5014741;28;20674;-72
2023/08/30 10:19:18;;;;;;;12.18;9.05;;;;;;;;;;5016329;28;20501;-72
2023/08/30 10:21:44;;;;;;;11.67;9.23;;;;;;;;;;5015773;28;20052;-71
2023/08/30 10:24:13;;;;;;;13.82;8.40;;;;;;;;;;5017332;28;20049;-72
2023/08/30 10:26:40;;;;;;;11.20;8.55;;;;;;;;;;5015838;28;20119;-72
2023/08/30 10:29:07;;;;;;;12.07;8.95;;;;;;;;;;5017991;28;20049;-72
2023/08/30 10:31:33;;;;;;;14.43;9.27;;;;;;;;;;5017921;28;20053;-72
2023/08/30 10:33:59;;;;;;;12.45;9.10;;;;;;;;;;5019315;28;20138;-72
2023/08/30 10:36:26;;;;;;;12.40;8.95;;;;;;;;;;5017613;28;20060;-72
2023/08/30 10:38:53;;;;;;;12.65;8.52;;;;;;;;;;5003883;28;20045;-71
2023/08/30 10:41:24;;;;;;;11.93;8.60;;;;;;;;;;5022107;28;20108;-72
2023/08/30 10:43:55;;;;;;;12.80;8.85;;;;;;;;;;5014900;28;20049;-72
2023/08/30 10:46:31;;;;;;;11.63;9.02;;;;;;;;;;5003165;28;20098;-72
2023/08/30 10:49:00;;;;;;;13.50;8.95;;;;;;;;;;5016343;28;20461;-72
2023/08/30 10:51:37;;;;;;;10.23;8.25;;;;;;;;;;5018616;28;20044;-72
2023/08/30 10:54:10;;;;;;;11.80;9.02;;;;;;;;;;5019329;28;20076;-71
2023/08/30 10:56:46;;;;;;;9.45;7.53;;;;;;;;;;5018382;28;20132;-72
2023/08/30 10:59:22;;;;;;;9.38;7.20;;;;;;;;;;5004659;28;20393;-72
2023/08/30 11:01:49;;;;;;;9.85;6.30;;;;;;;;;;5017356;28;20064;-72
2023/08/30 11:04:18;;;;;;;9.82;6.63;;;;;;;;;;5017723;28;20059;-72
2023/08/30 11:06:46;;;;;;;8.55;7.55;;;;;;;;;;5017008;28;20120;-72
2023/08/30 11:09:23;;;;;;;10.80;7.05;;;;;;;;;;5015846;28;22155;-72
2023/08/30 11:11:50;;;;;;;9.95;8.20;;;;;;;;;;5015000;28;20043;-72
2023/08/30 11:14:17;;;;;;;10.52;8.77;;;;;;;;;;5017324;28;20098;-72
2023/08/30 11:16:43;;;;;;;12.55;8.55;;;;;;;;;;5014696;28;20060;-72
2023/08/30 11:19:11;;;;;;;11.80;9.25;;;;;;;;;;5016300;28;20041;-71
2023/08/30 11:21:38;;;;;;;13.45;8.95;;;;;;;;;;5011979;28;20144;-71
2023/08/30 11:24:04;;;;;;;12.02;10.32;;;;;;;;;;5014312;28;20128;-71
2023/08/30 11:26:31;;;;;;;12.50;9.35;;;;;;;;;;5030953;28;20484;-71
2023/08/30 11:28:57;;;;;;;9.13;8.00;;;;;;;;;;5035281;28;20037;-70
2023/08/30 11:31:27;;;;;;;7.90;6.00;;;;;;;;;;5015089;28;20151;-71
2023/08/30 11:33:55;;;;;;;6.82;6.10;;;;;;;;;;5014362;28;20058;-71
2023/08/30 11:36:24;;;;;;;9.27;6.22;;;;;;;;;;5035860;28;20163;-71
2023/08/30 11:38:51;;;;;;;5.68;4.95;;;;;;;;;;5013275;28;20036;-71
2023/08/30 11:41:17;;;;;;;6.72;5.07;;;;;;;;;;5016039;28;20043;-71
2023/08/30 11:43:44;;;;;;;7.55;5.07;;;;;;;;;;5033110;28;20037;-71
2023/08/30 11:46:12;;;;;;;10.18;5.75;;;;;;;;;;5030406;28;20036;-71
2023/08/30 11:48:39;;;;;;;7.03;5.28;;;;;;;;;;5020665;28;20110;-70
2023/08/30 11:51:05;;;;;;;6.03;5.18;;;;;;;;;;5014131;28;20043;-70
2023/08/30 11:53:32;;;;;;;6.32;4.57;;;;;;;;;;5022572;28;20075;-71
2023/08/30 11:55:58;;;;;;;5.22;4.50;;;;;;;;;;5020842;28;20066;-71
2023/08/30 11:58:24;;;;;;;10.75;4.53;;;;;;;;;;5018505;28;20440;-71
2023/08/30 12:00:51;;;;;;;4.53;4.10;;;;;;;;;;5006654;28;20040;-71
2023/08/30 12:03:17;;;;;;;5.45;4.15;;;;;;;;;;5004694;28;20540;-71
2023/08/30 12:05:50;;;;;;;4.40;3.97;;;;;;;;;;5033243;28;20036;-71
2023/08/30 12:08:28;;;;;;;6.38;4.53;;;;;;;;;;5040301;28;20090;-71
2023/08/30 12:10:55;;;;;;;6.68;4.22;;;;;;;;;;5039260;28;20045;-71
2023/08/30 12:13:24;;;;;;;8.93;5.30;;;;;;;;;;5039096;28;20068;-71
2023/08/30 12:15:51;;;;;;;7.65;5.53;;;;;;;;;;5020665;28;20082;-71
2023/08/30 12:18:17;;;;;;;8.70;5.40;;;;;;;;;;5023304;28;20971;-71
2023/08/30 12:20:57;;;;;;;8.40;6.07;;;;;;;;;;5018951;28;20036;-71
2023/08/30 12:23:23;;;;;;;6.53;5.70;;;;;;;;;;5040908;28;20468;-71
2023/08/30 12:26:01;;;;;;;6.97;5.45;;;;;;;;;;5035364;28;20055;-71
2023/08/30 12:28:29;;;;;;;5.45;4.88;;;;;;;;;;5013450;28;20107;-71
2023/08/30 12:30:55;;;;;;;6.75;5.38;;;;;;;;;;5033406;28;20504;-71
2023/08/30 12:33:21;;;;;;;7.75;5.03;;;;;;;;;;5015862;28;20036;-71
2023/08/30 12:35:47;;;;;;;5.95;5.30;;;;;;;;;;5032784;28;20167;-71
2023/08/30 12:38:22;;;;;;;10.13;6.20;;;;;;;;;;5017088;28;20045;-71
2023/08/30 12:40:49;;;;;;;7.68;6.25;;;;;;;;;;5016363;28;20037;-71
2023/08/30 12:43:16;;;;;;;8.93;6.90;;;;;;;;;;5018211;28;20036;-71
2023/08/30 12:45:43;;;;;;;9.95;8.88;;;;;;;;;;5033193;28;20981;-71
2023/08/30 12:48:09;;;;;;;11.07;9.02;;;;;;;;;;5033080;28;21275;-70
2023/08/30 12:50:39;;;;;;;11.77;9.93;;;;;;;;;;5017530;28;20053;-71
2023/08/30 12:53:05;;;;;;;10.75;9.25;;;;;;;;;;5031444;28;20044;-71
2023/08/30 12:55:32;;;;;;;20.80;8.65;;;;;;;;;;5013703;28;21069;-71
2023/08/30 12:57:58;;;;;;;12.18;9.10;;;;;;;;;;5000925;28;20162;-71
2023/08/30 13:00:24;;;;;;;11.95;9.20;;;;;;;;;;5022689;28;20123;-71
2023/08/30 13:02:51;;;;;;;12.15;9.07;;;;;;;;;;5036221;28;20052;-71
2023/08/30 13:05:17;;;;;;;16.00;10.77;;;;;;;;;;5020737;28;20558;-71
2023/08/30 13:07:43;;;;;;;15.60;12.23;;;;;;;;;;5018458;28;20054;-71
2023/08/30 13:10:10;;;;;;;14.68;12.30;;;;;;;;;;5003821;28;20053;-71
2023/08/30 13:12:36;;;;;;;13.30;11.75;;;;;;;;;;5020871;28;20455;-71
2023/08/30 13:15:02;;;;;;;13.98;12.48;;;;;;;;;;5038534;28;20049;-71
2023/08/30 13:17:28;;;;;;;15.32;13.25;;;;;;;;;;5037217;28;20044;-71
2023/08/30 13:19:56;;;;;;;15.35;13.23;;;;;;;;;;5039132;28;20032;-72
2023/08/30 13:22:22;;;;;;;14.48;11.85;;;;;;;;;;5020515;28;20562;-71
2023/08/30 13:24:49;;;;;;;16.95;12.75;;;;;;;;;;5036316;28;20112;-70
2023/08/30 13:27:15;;;;;;;14.50;10.57;;;;;;;;;;5018798;28;20102;-70
2023/08/30 13:29:41;;;;;;;14.63;10.77;;;;;;;;;;5018707;28;20056;-71
2023/08/30 13:32:07;;;;;;;11.55;10.10;;;;;;;;;;5020975;28;20159;-71
2023/08/30 13:34:33;;;;;;;10.18;9.07;;;;;;;;;;5020611;28;20060;-71
2023/08/30 13:36:59;;;;;;;8.65;7.82;;;;;;;;;;5036447;28;20049;-71
2023/08/30 13:39:25;;;;;;;8.90;7.82;;;;;;;;;;5016563;28;20531;-71
2023/08/30 13:41:51;;;;;;;9.82;7.63;;;;;;;;;;5006914;28;20163;-71
2023/08/30 13:44:17;;;;;;;8.07;7.28;;;;;;;;;;5017965;28;20040;-71
2023/08/30 13:46:44;;;;;;;7.63;6.53;;;;;;;;;;5019847;28;20044;-71
2023/08/30 13:49:10;;;;;;;6.47;5.88;;;;;;;;;;5018865;28;20043;-71
2023/08/30 13:51:36;;;;;;;7.05;6.35;;;;;;;;;;5019645;28;20064;-71
2023/08/30 13:54:03;;;;;;;7.72;6.70;;;;;;;;;;5019340;28;20063;-70
2023/08/30 13:56:29;;;;;;;6.25;5.57;;;;;;;;;;5019660;28;20056;-70
2023/08/30 13:58:56;;;;;;;9.00;5.25;;;;;;;;;;5017851;28;21379;-71
2023/08/30 14:01:22;;;;;;;6.20;5.07;;;;;;;;;;5018203;28;20048;-71
2023/08/30 14:03:48;;;;;;;6.40;5.78;;;;;;;;;;5037194;28;20040;-71
2023/08/30 14:06:15;;;;;;;6.13;5.45;;;;;;;;;;5018689;28;20125;-71
2023/08/30 14:08:41;;;;;;;6.43;5.82;;;;;;;;;;5041048;28;20102;-71
2023/08/30 14:11:07;;;;;;;6.90;6.28;;;;;;;;;;5023203;28;20049;-71
2023/08/30 14:13:33;;;;;;;8.50;6.00;;;;;;;;;;5004149;28;20048;-71
2023/08/30 14:16:00;;;;;;;9.82;6.65;;;;;;;;;;5040038;28;20063;-71
2023/08/30 14:18:26;;;;;;;6.32;5.72;;;;;;;;;;5022277;28;20060;-71
2023/08/30 14:20:56;;;;;;;6.90;5.55;;;;;;;;;;5041061;28;20115;-71